Time;durP1;ratioP1;P1;durP2;ratioP2;P2;SDS_P1;SDS_P2;PMS_P1;PMS_P2;Temp;Humidity;BMP_temperature;BMP_pressure;BME280_temperature;BME280_humidity;BME280_pressure;Samples;Min_cycle;Max_cycle;Signal;HPM_P1;HPM_P2
2023/06/27 00:00:19;;;;;;;6.03;3.00;;;;;;;;;;5054027;28;20039;-47
2023/06/27 00:02:48;;;;;;;4.13;2.97;;;;;;;;;;5053676;28;20036;-46
2023/06/27 00:05:14;;;;;;;8.02;3.17;;;;;;;;;;5017743;28;20075;-47
2023/06/27 00:07:42;;;;;;;4.93;3.22;;;;;;;;;;5034085;28;20099;-46
2023/06/27 00:10:11;;;;;;;5.40;3.08;;;;;;;;;;5033738;28;20567;-46
2023/06/27 00:12:37;;;;;;;8.40;3.08;;;22.20;99.90;;;;;;5034121;28;20057;-46
2023/06/27 00:15:07;;;;;;;6.57;3.03;;;22.20;99.90;;;;;;5033688;28;20044;-46
2023/06/27 00:17:34;;;;;;;4.90;3.20;;;22.10;99.90;;;;;;4983309;28;20117;-46
2023/06/27 00:20:00;;;;;;;5.43;2.83;;;22.10;99.90;;;;;;5033833;28;20515;-47
2023/06/27 00:22:26;;;;;;;4.40;3.03;;;22.10;99.90;;;;;;5033674;28;20080;-47
2023/06/27 00:24:53;;;;;;;4.72;3.50;;;22.10;99.90;;;;;;5033535;28;20061;-46
2023/06/27 00:27:19;;;;;;;5.40;2.90;;;22.00;99.90;;;;;;5033666;28;20025;-46
2023/06/27 00:29:45;;;;;;;6.30;2.95;;;22.00;99.90;;;;;;5034157;28;20100;-46
2023/06/27 00:32:11;;;;;;;6.05;2.90;;;22.00;99.90;;;;;;5033738;28;20462;-46
2023/06/27 00:34:36;;;;;;;5.97;3.10;;;22.00;99.90;;;;;;5031582;28;20037;-47
2023/06/27 00:37:02;;;;;;;4.88;3.17;;;21.90;99.90;;;;;;5033891;28;20087;-47
2023/06/27 00:39:28;;;;;;;6.45;3.30;;;22.00;99.90;;;;;;5015356;28;20033;-46
2023/06/27 00:41:55;;;;;;;9.38;3.35;;;;;;;;;;5031884;28;20061;-48
2023/06/27 00:44:20;;;;;;;3.58;2.70;;;21.80;99.90;;;;;;5033652;28;20057;-46
2023/06/27 00:46:51;;;;;;;4.55;2.97;;;21.80;99.90;;;;;;5031462;28;20480;-46
2023/06/27 00:49:20;;;;;;;6.20;3.05;;;21.80;99.90;;;;;;5033350;28;20108;-47
2023/06/27 00:51:49;;;;;;;5.70;3.20;;;21.80;99.90;;;;;;5031838;28;20021;-46
2023/06/27 00:54:17;;;;;;;4.57;3.08;;;21.80;99.90;;;;;;5033350;28;20037;-46
2023/06/27 00:56:43;;;;;;;4.80;3.13;;;21.70;99.90;;;;;;5032494;28;20508;-45
2023/06/27 00:59:09;;;;;;;4.20;2.80;;;21.70;99.90;;;;;;5033140;28;20041;-46
2023/06/27 01:01:35;;;;;;;4.18;2.78;;;21.70;99.90;;;;;;5031052;28;20037;-46
2023/06/27 01:04:01;;;;;;;3.95;2.58;;;21.60;99.90;;;;;;5032997;28;20034;-45
2023/06/27 01:06:30;;;;;;;7.80;3.42;;;21.60;99.90;;;;;;5031367;28;20123;-46
2023/06/27 01:09:45;;;;;;;3.75;2.60;;;21.60;99.90;;;;;;5033505;28;20108;-47
2023/06/27 01:12:27;;;;;;;4.82;3.05;;;21.70;99.90;;;;;;5024190;28;20037;-46
2023/06/27 01:14:57;;;;;;;3.88;2.58;;;21.70;99.90;;;;;;4982184;28;20053;-46
2023/06/27 01:17:24;;;;;;;6.07;2.72;;;21.60;99.90;;;;;;5032983;28;20072;-46
2023/06/27 01:19:52;;;;;;;4.55;2.50;;;21.60;99.90;;;;;;5033109;28;20450;-46
2023/06/27 01:22:28;;;;;;;3.85;2.55;;;21.60;99.90;;;;;;5033177;28;20073;-47
2023/06/27 01:24:54;;;;;;;3.78;2.65;;;21.60;99.90;;;;;;5032995;28;20068;-45
2023/06/27 01:27:20;;;;;;;4.95;2.63;;;21.60;99.90;;;;;;5033040;28;20385;-47
2023/06/27 01:29:46;;;;;;;6.22;2.97;;;21.60;99.90;;;;;;5032919;28;20033;-46
2023/06/27 01:32:22;;;;;;;3.72;2.63;;;21.60;99.90;;;;;;5051130;28;20067;-47
2023/06/27 01:35:21;;;;;;;6.15;2.60;;;21.60;99.90;;;;;;5053051;28;20055;-48
2023/06/27 01:37:52;;;;;;;3.70;2.50;;;21.60;99.90;;;;;;5052675;28;20029;-46
2023/06/27 01:40:19;;;;;;;;;;;21.60;99.90;;;;;;5053112;28;20037;-46
2023/06/27 01:42:53;;;;;;;5.63;2.55;;;21.60;99.90;;;;;;5053063;28;19959;-46
2023/06/27 01:45:19;;;;;;;4.82;2.70;;;21.50;99.90;;;;;;5052908;28;20033;-46
2023/06/27 01:47:46;;;;;;;5.10;2.40;;;;;;;;;;5052745;28;20033;-46
2023/06/27 01:50:12;;;;;;;4.55;2.63;;;21.50;99.90;;;;;;5052160;28;20025;-45
2023/06/27 01:52:38;;;;;;;5.10;2.47;;;21.60;99.90;;;;;;5017946;28;20364;-46
2023/06/27 01:55:05;;;;;;;4.30;2.60;;;21.60;99.90;;;;;;4991363;28;20117;-45
2023/06/27 01:57:31;;;;;;;3.83;2.53;;;21.60;99.90;;;;;;4958498;28;20058;-46
2023/06/27 01:59:56;;;;;;;6.07;2.67;;;21.60;99.90;;;;;;4958922;28;20069;-46
2023/06/27 02:02:22;;;;;;;5.60;2.58;;;21.60;99.90;;;;;;4958496;28;20530;-45
2023/06/27 02:04:48;;;;;;;4.80;2.83;;;21.70;99.90;;;;;;4961295;28;20038;-46
2023/06/27 02:07:13;;;;;;;7.50;3.20;;;21.60;99.90;;;;;;4994824;28;20042;-44
2023/06/27 02:09:39;;;;;;;6.10;2.50;;;21.60;99.90;;;;;;4994770;28;20046;-45
2023/06/27 02:12:06;;;;;;;4.47;2.15;;;21.60;99.90;;;;;;4994673;28;20470;-46
2023/06/27 02:14:31;;;;;;;4.47;2.17;;;21.60;99.90;;;;;;4962078;28;20042;-45
2023/06/27 02:16:57;;;;;;;3.50;2.35;;;21.50;99.90;;;;;;4994418;28;20038;-45
2023/06/27 02:19:23;;;;;;;6.78;2.78;;;21.50;99.90;;;;;;4994543;28;20552;-46
2023/06/27 02:21:50;;;;;;;3.45;2.30;;;21.50;99.90;;;;;;4994469;28;20186;-45
2023/06/27 02:24:16;;;;;;;3.85;2.15;;;21.50;99.90;;;;;;4986289;28;20430;-45
2023/06/27 02:26:43;;;;;;;4.32;2.97;;;21.50;99.90;;;;;;5022251;28;20041;-45
2023/06/27 02:29:09;;;;;;;4.05;2.38;;;21.50;99.90;;;;;;5036338;28;20037;-45
2023/06/27 02:31:35;;;;;;;7.47;2.72;;;21.60;99.90;;;;;;5035707;28;20109;-46
2023/06/27 02:34:01;;;;;;;4.10;2.42;;;21.50;99.90;;;;;;5035700;28;20065;-46
2023/06/27 02:36:27;;;;;;;4.35;2.78;;;21.50;99.90;;;;;;5035869;28;20030;-46
2023/06/27 02:38:56;;;;;;;4.30;2.38;;;21.50;99.90;;;;;;5035583;28;20029;-46
2023/06/27 02:41:23;;;;;;;6.35;2.47;;;21.50;99.90;;;;;;5035679;28;20037;-46
2023/06/27 02:43:49;;;;;;;4.57;2.72;;;21.50;99.90;;;;;;5035455;28;20048;-45
2023/06/27 02:46:15;;;;;;;6.35;3.03;;;21.50;99.90;;;;;;5035757;28;20029;-47
2023/06/27 02:48:40;;;;;;;6.63;2.50;;;21.50;99.90;;;;;;5000776;28;20042;-46
2023/06/27 02:51:06;;;;;;;6.93;2.85;;;21.50;99.90;;;;;;5035101;28;20136;-45
2023/06/27 02:53:32;;;;;;;4.68;2.80;;;21.50;99.90;;;;;;5035432;28;20084;-45
2023/06/27 02:56:02;;;;;;;4.38;2.90;;;21.50;99.90;;;;;;5035569;28;20495;-45
2023/06/27 02:58:30;;;;;;;4.32;3.17;;;21.50;99.90;;;;;;5035285;28;20096;-47
2023/06/27 03:00:59;;;;;;;3.83;2.53;;;21.50;99.90;;;;;;5035523;28;20136;-46
2023/06/27 03:03:25;;;;;;;10.70;3.00;;;21.50;99.90;;;;;;5035521;28;20064;-47
2023/06/27 03:05:51;;;;;;;5.88;2.42;;;21.50;99.90;;;;;;5034801;28;20038;-46
2023/06/27 03:08:16;;;;;;;3.85;2.63;;;21.50;99.90;;;;;;5035194;28;20034;-47
2023/06/27 03:10:42;;;;;;;4.90;2.67;;;21.50;99.90;;;;;;5036691;28;20453;-46
2023/06/27 03:13:08;;;;;;;4.50;2.50;;;21.50;99.90;;;;;;5037638;28;20026;-46
2023/06/27 03:15:34;;;;;;;9.43;2.80;;;21.50;99.90;;;;;;5041499;28;20056;-45
2023/06/27 03:18:00;;;;;;;5.68;2.53;;;21.50;99.90;;;;;;4993550;28;20087;-45
2023/06/27 03:20:26;;;;;;;5.75;2.80;;;21.50;99.90;;;;;;5051563;28;20040;-45
2023/06/27 03:22:52;;;;;;;4.57;2.80;;;21.50;99.90;;;;;;5054602;28;20392;-45
2023/06/27 03:25:18;;;;;;;4.47;2.72;;;21.50;99.90;;;;;;5054582;28;20064;-45
2023/06/27 03:27:44;;;;;;;4.32;2.60;;;21.50;99.90;;;;;;5019458;28;20052;-45
2023/06/27 03:30:10;;;;;;;7.20;2.80;;;21.50;99.90;;;;;;5019857;28;20507;-45
2023/06/27 03:32:36;;;;;;;4.97;2.40;;;21.50;99.90;;;;;;5003648;28;20041;-46
2023/06/27 03:35:02;;;;;;;5.88;2.80;;;21.50;99.90;;;;;;5019446;28;20037;-45
2023/06/27 03:37:28;;;;;;;4.60;2.80;;;21.50;99.90;;;;;;5003281;28;20480;-45
2023/06/27 03:39:56;;;;;;;3.33;2.35;;;21.60;99.90;;;;;;5019304;28;20049;-46
2023/06/27 03:42:21;;;;;;;4.57;3.03;;;21.60;99.90;;;;;;5054901;28;20056;-46
2023/06/27 03:44:47;;;;;;;4.47;2.70;;;21.60;99.90;;;;;;5054818;28;20036;-45
2023/06/27 03:47:13;;;;;;;5.57;3.08;;;21.60;99.90;;;;;;5019358;28;20090;-45
2023/06/27 03:49:39;;;;;;;3.97;2.55;;;21.60;99.90;;;;;;5019232;28;20037;-45
2023/06/27 03:52:04;;;;;;;6.25;2.78;;;21.70;99.90;;;;;;5054531;28;20094;-44
2023/06/27 03:54:30;;;;;;;4.22;2.83;;;21.70;99.90;;;;;;4970441;28;20044;-45
2023/06/27 03:56:56;;;;;;;5.90;2.83;;;21.70;99.90;;;;;;5053907;28;20139;-45
2023/06/27 03:59:22;;;;;;;5.00;2.75;;;21.70;99.90;;;;;;5054328;28;20037;-46
2023/06/27 04:01:47;;;;;;;7.53;3.42;;;21.70;99.90;;;;;;5054015;28;20373;-45
2023/06/27 04:04:13;;;;;;;5.78;2.80;;;21.80;99.90;;;;;;5054063;28;20037;-45
2023/06/27 04:06:39;;;;;;;5.18;2.95;;;21.80;99.90;;;;;;5044277;28;20036;-45
2023/06/27 04:09:06;;;;;;;4.18;2.50;;;21.80;99.90;;;;;;5034173;28;20080;-44
2023/06/27 04:11:32;;;;;;;5.28;2.88;;;21.80;99.90;;;;;;5033954;28;20439;-45
2023/06/27 04:13:59;;;;;;;4.78;2.70;;;21.90;99.90;;;;;;5033931;28;20041;-45
2023/06/27 04:16:26;;;;;;;3.95;2.75;;;22.00;99.90;;;;;;5034200;28;20389;-45
2023/06/27 04:18:52;;;;;;;5.25;2.58;;;21.90;99.90;;;;;;5033752;28;20034;-44
2023/06/27 04:21:19;;;;;;;5.75;3.15;;;21.90;99.90;;;;;;5033630;28;20664;-45
2023/06/27 04:23:44;;;;;;;5.82;3.00;;;21.90;99.90;;;;;;4999000;28;20393;-45
2023/06/27 04:26:15;;;;;;;6.00;2.85;;;22.10;99.90;;;;;;5033113;28;20037;-46
2023/06/27 04:28:43;;;;;;;6.50;3.50;;;22.10;99.90;;;;;;5033805;28;20044;-46
2023/06/27 04:31:09;;;;;;;6.15;3.45;;;22.20;99.90;;;;;;5035975;28;20045;-46
2023/06/27 04:33:39;;;;;;;4.35;2.92;;;22.20;99.90;;;;;;4999169;28;20132;-47
2023/06/27 04:36:06;;;;;;;5.32;3.08;;;22.30;99.90;;;;;;5000043;28;20052;-47
2023/06/27 04:38:38;;;;;;;6.00;3.88;;;22.40;99.90;;;;;;5033467;28;20034;-47
2023/06/27 04:41:10;;;;;;;5.90;3.13;;;22.40;99.90;;;;;;5046697;28;20146;-47
2023/06/27 04:43:39;;;;;;;6.50;3.42;;;22.50;99.90;;;;;;5053650;28;20033;-47
2023/06/27 04:46:04;;;;;;;5.68;3.15;;;22.60;99.90;;;;;;5053123;28;20128;-47
2023/06/27 04:48:31;;;;;;;5.78;3.85;;;22.60;99.90;;;;;;5053707;28;20145;-47
2023/06/27 04:50:57;;;;;;;5.55;3.22;;;22.70;99.90;;;;;;5053042;28;20060;-46
2023/06/27 04:53:25;;;;;;;9.65;3.67;;;22.80;99.90;;;;;;5053383;28;20048;-47
2023/06/27 04:55:53;;;;;;;4.95;3.65;;;22.90;99.90;;;;;;5047177;28;20033;-47
2023/06/27 04:58:19;;;;;;;6.63;3.63;;;23.00;99.90;;;;;;5032654;28;20092;-46
2023/06/27 05:00:51;;;;;;;6.45;3.50;;;23.00;99.90;;;;;;5033111;28;20040;-47
2023/06/27 05:03:17;;;;;;;5.80;3.55;;;23.10;99.90;;;;;;5033193;28;20083;-47
2023/06/27 05:05:43;;;;;;;6.65;3.45;;;23.10;99.90;;;;;;5033262;28;20029;-46
2023/06/27 05:08:10;;;;;;;6.97;3.58;;;23.30;99.90;;;;;;5032924;28;20041;-47
2023/06/27 05:10:36;;;;;;;4.97;3.70;;;23.30;99.90;;;;;;5033200;28;20030;-45
2023/06/27 05:13:02;;;;;;;7.07;3.47;;;23.40;99.90;;;;;;5043897;28;20487;-47
2023/06/27 05:15:28;;;;;;;4.85;3.17;;;23.50;99.90;;;;;;5004731;28;20067;-48
2023/06/27 05:18:14;;;;;;;6.82;4.00;;;23.30;99.90;;;;;;5033245;28;20112;-46
2023/06/27 05:20:47;;;;;;;5.15;3.78;;;23.50;99.90;;;;;;5003658;28;20392;-47
2023/06/27 05:23:13;;;;;;;5.95;4.15;;;23.60;99.90;;;;;;5052905;28;20029;-46
2023/06/27 05:25:38;;;;;;;6.43;4.25;;;23.80;99.90;;;;;;5048694;28;20043;-47
2023/06/27 05:28:04;;;;;;;5.50;3.92;;;23.80;99.90;;;;;;5041965;28;20123;-47
2023/06/27 05:30:30;;;;;;;7.82;4.13;;;24.00;99.90;;;;;;5016698;28;20041;-46
2023/06/27 05:32:57;;;;;;;9.57;3.92;;;23.90;99.90;;;;;;5041338;28;20030;-47
2023/06/27 05:35:23;;;;;;;5.35;3.42;;;24.00;99.90;;;;;;5047214;28;20033;-45
2023/06/27 05:37:50;;;;;;;8.70;4.05;;;24.00;99.90;;;;;;5040377;28;20033;-48
2023/06/27 05:40:16;;;;;;;6.75;3.88;;;24.00;99.90;;;;;;5056049;28;20025;-47
2023/06/27 05:42:42;;;;;;;7.82;3.30;;;24.00;99.90;;;;;;5052384;28;20120;-46
2023/06/27 05:45:08;;;;;;;5.75;4.00;;;24.10;99.90;;;;;;5069036;28;20390;-46
2023/06/27 05:47:34;;;;;;;6.90;4.50;;;24.30;99.90;;;;;;5041196;28;20082;-46
2023/06/27 05:50:00;;;;;;;5.20;4.00;;;24.40;99.90;;;;;;5076759;28;20036;-46
2023/06/27 05:52:28;;;;;;;7.22;4.00;;;24.50;99.90;;;;;;5025176;28;20533;-46
2023/06/27 05:54:54;;;;;;;5.90;4.15;;;24.60;99.90;;;;;;5076545;28;20093;-46
2023/06/27 05:57:20;;;;;;;8.35;4.00;;;24.80;99.90;;;;;;5037832;28;20053;-46
2023/06/27 05:59:46;;;;;;;6.15;4.15;;;24.60;99.90;;;;;;5038117;28;20480;-46
2023/06/27 06:02:12;;;;;;;6.63;4.07;;;24.80;99.90;;;;;;5056408;28;20179;-46
2023/06/27 06:04:37;;;;;;;6.32;3.60;;;24.90;99.90;;;;;;5056276;28;20485;-44
2023/06/27 06:07:03;;;;;;;7.20;3.75;;;25.00;99.90;;;;;;5056478;28;20029;-45
2023/06/27 06:09:30;;;;;;;5.15;3.80;;;25.20;99.90;;;;;;5037538;28;20041;-45
2023/06/27 06:11:56;;;;;;;4.85;3.47;;;25.20;99.90;;;;;;5056023;28;20088;-45
2023/06/27 06:14:22;;;;;;;7.65;3.80;;;25.10;99.90;;;;;;5056324;28;20366;-45
2023/06/27 06:16:48;;;;;;;5.68;3.38;;;25.20;99.90;;;;;;5036635;28;20044;-45
2023/06/27 06:19:15;;;;;;;7.90;3.63;;;25.20;99.90;;;;;;5016434;28;20038;-45
2023/06/27 06:21:41;;;;;;;5.18;3.63;;;;;;;;;;5017777;28;20049;-47
2023/06/27 06:24:10;;;;;;;4.85;3.22;;;25.40;99.90;;;;;;5025317;28;20033;-46
2023/06/27 06:26:36;;;;;;;5.90;3.58;;;25.50;99.90;;;;;;5033877;28;20476;-46
2023/06/27 06:29:03;;;;;;;4.63;3.50;;;;;;;;;;5035971;28;20404;-45
2023/06/27 06:31:28;;;;;;;6.78;3.70;;;24.20;99.90;;;;;;5035825;28;20039;-46
2023/06/27 06:33:56;;;;;;;5.28;3.30;;;;;;;;;;5034143;28;20419;-47
2023/06/27 06:36:22;;;;;;;5.50;3.65;;;;;;;;;;5035851;28;20037;-45
2023/06/27 06:38:48;;;;;;;4.93;3.47;;;;;;;;;;5036073;28;20117;-45
2023/06/27 06:41:14;;;;;;;7.97;5.35;;;26.00;99.90;;;;;;5035680;28;20514;-45
2023/06/27 06:43:40;;;;;;;7.50;3.85;;;26.30;99.90;;;;;;5035662;28;20033;-47
2023/06/27 06:46:06;;;;;;;6.45;3.90;;;;;;;;;;5035881;28;20025;-45
2023/06/27 06:48:32;;;;;;;5.45;3.33;;;;;;;;;;5033792;28;20042;-47
2023/06/27 06:50:58;;;;;;;5.95;3.58;;;26.40;99.90;;;;;;5034922;28;20132;-45
2023/06/27 06:53:23;;;;;;;4.97;3.47;;;26.30;99.90;;;;;;5035889;28;20149;-45
2023/06/27 06:55:49;;;;;;;6.72;3.55;;;26.50;99.90;;;;;;5035302;28;20044;-46
2023/06/27 06:58:15;;;;;;;7.05;3.47;;;26.40;99.90;;;;;;5053248;28;20060;-45
2023/06/27 07:00:41;;;;;;;5.30;3.30;;;26.60;99.90;;;;;;5055183;28;20488;-45
2023/06/27 07:03:10;;;;;;;6.43;3.63;;;;;;;;;;5055463;28;20065;-45
2023/06/27 07:05:37;;;;;;;9.23;3.88;;;;;;;;;;5055669;28;20411;-45
2023/06/27 07:08:06;;;;;;;6.53;4.05;;;;;;;;;;5055559;28;20068;-45
2023/06/27 07:10:32;;;;;;;8.25;3.72;;;;;;;;;;5036646;28;20037;-45
2023/06/27 07:12:59;;;;;;;5.93;3.97;;;;;;;;;;5020082;28;20095;-45
2023/06/27 07:15:26;;;;;;;5.05;3.58;;;;;;;;;;5055065;28;20120;-45
2023/06/27 07:17:52;;;;;;;4.82;3.08;;;;;;;;;;5047467;28;20036;-47
2023/06/27 07:20:20;;;;;;;6.03;3.70;;;;;;;;;;5010254;28;20041;-47
2023/06/27 07:22:46;;;;;;;6.40;3.78;;;;;;;;;;5051177;28;20102;-47
2023/06/27 07:25:12;;;;;;;5.75;3.63;;;27.20;99.90;;;;;;5034634;28;20112;-45
2023/06/27 07:27:38;;;;;;;5.88;3.70;;;27.50;99.90;;;;;;4992668;28;20072;-45
2023/06/27 07:30:05;;;;;;;5.47;3.35;;;27.40;99.90;;;;;;5051623;28;20554;-45
2023/06/27 07:32:30;;;;;;;5.55;3.45;;;27.50;99.90;;;;;;4994788;28;20044;-46
2023/06/27 07:34:56;;;;;;;8.70;3.85;;;27.70;99.90;;;;;;5012135;28;20080;-46
2023/06/27 07:37:22;;;;;;;9.13;3.20;;;27.60;99.90;;;;;;5000660;28;20040;-47
2023/06/27 07:39:48;;;;;;;8.55;3.90;;;;;;;;;;5052462;28;20028;-47
2023/06/27 07:42:16;;;;;;;10.52;3.70;;;27.90;99.90;;;;;;5018819;28;20059;-47
2023/06/27 07:44:42;;;;;;;10.20;3.75;;;27.90;99.90;;;;;;5051692;28;20033;-47
2023/06/27 07:47:08;;;;;;;6.95;3.67;;;;;;;;;;5052852;28;20047;-47
2023/06/27 07:49:34;;;;;;;6.03;3.60;;;;;;;;;;5052176;28;20047;-46
2023/06/27 07:52:00;;;;;;;7.53;3.75;;;;;;;;;;5052437;28;20033;-46
2023/06/27 07:54:27;;;;;;;6.32;4.32;;;;;;;;;;5049211;28;20064;-46
2023/06/27 07:56:57;;;;;;;6.30;3.78;;;;;;;;;;5050874;28;20396;-47
2023/06/27 07:59:23;;;;;;;11.35;4.00;;;;;;;;;;5053465;28;20025;-47
2023/06/27 08:01:49;;;;;;;5.57;3.00;;;;;;;;;;5015089;28;20053;-48
2023/06/27 08:04:15;;;;;;;5.57;3.05;;;;;;;;;;5017253;28;20068;-48
2023/06/27 08:06:44;;;;;;;8.02;3.80;;;;;;;;;;5050059;28;20048;-47
2023/06/27 08:09:10;;;;;;;6.45;3.15;;;;;;;;;;5034044;28;20476;-47
2023/06/27 08:11:36;;;;;;;5.32;3.55;;;;;;;;;;5017334;28;20045;-46
2023/06/27 08:14:03;;;;;;;6.20;4.00;;;;;;;;;;5051170;28;20037;-47
2023/06/27 08:16:29;;;;;;;4.47;3.10;;;;;;;;;;5051908;28;20072;-46
2023/06/27 08:18:55;;;;;;;4.88;2.85;;;;;;;;;;5051486;28;20036;-46
2023/06/27 08:21:21;;;;;;;8.02;3.70;;;;;;;;;;5051800;28;20033;-45
2023/06/27 08:23:47;;;;;;;6.78;3.33;;;;;;;;;;5052344;28;20029;-45
2023/06/27 08:26:14;;;;;;;5.63;3.55;;;;;;;;;;5049497;28;20503;-46
2023/06/27 08:28:41;;;;;;;12.63;4.15;;;;;;;;;;5045283;28;20022;-46
2023/06/27 08:31:07;;;;;;;7.28;3.50;;;;;;;;;;5073192;28;20388;-45
2023/06/27 08:33:33;;;;;;;7.30;3.85;;;;;;;;;;5071785;28;20514;-45
2023/06/27 08:35:59;;;;;;;5.30;3.25;;;;;;;;;;5053285;28;20037;-46
2023/06/27 08:38:25;;;;;;;7.15;3.50;;;;;;;;;;5034990;28;20071;-45
2023/06/27 08:40:55;;;;;;;4.45;3.13;;;;;;;;;;5051681;28;20032;-47
2023/06/27 08:43:21;;;;;;;7.18;3.63;;;;;;;;;;5021651;28;20527;-48
2023/06/27 08:45:49;;;;;;;4.50;3.30;;;;;;;;;;5045685;28;20021;-47
2023/06/27 08:48:16;;;;;;;13.90;3.63;;;29.30;99.90;;;;;;5041619;28;20508;-47
2023/06/27 08:50:42;;;;;;;5.88;3.17;;;29.80;99.90;;;;;;4982152;28;20044;-47
2023/06/27 08:53:20;;;;;;;7.72;3.80;;;29.90;99.90;;;;;;5043269;28;20083;-48
2023/06/27 08:56:02;;;;;;;4.38;3.25;;;;;;;;;;5010168;28;20043;-48
2023/06/27 08:58:31;;;;;;;6.90;3.28;;;;;;;;;;5042572;28;20497;-47
2023/06/27 09:00:57;;;;;;;3.45;2.55;;;;;;;;;;5040519;28;20041;-47
2023/06/27 09:03:24;;;;;;;5.70;3.75;;;;;;;;;;4998446;28;20141;-48
2023/06/27 09:05:50;;;;;;;6.03;3.30;;;;;;;;;;5035925;28;20100;-48
2023/06/27 09:08:18;;;;;;;5.00;2.90;;;;;;;;;;5049978;28;20040;-47
2023/06/27 09:10:44;;;;;;;4.03;2.67;;;30.70;99.90;;;;;;5005397;28;20116;-47
2023/06/27 09:13:10;;;;;;;4.10;3.15;;;30.50;99.90;;;;;;5050940;28;20527;-48
2023/06/27 09:15:36;;;;;;;3.63;2.67;;;30.50;99.90;;;;;;5047002;28;20074;-48
2023/06/27 09:18:02;;;;;;;7.10;3.40;;;30.70;99.90;;;;;;5043567;28;20088;-48
2023/06/27 09:20:28;;;;;;;4.63;3.28;;;;;;;;;;5041110;28;20033;-48
2023/06/27 09:22:57;;;;;;;4.57;2.78;;;30.80;99.90;;;;;;5037206;28;20125;-48
2023/06/27 09:25:24;;;;;;;4.28;2.75;;;30.80;99.90;;;;;;5033199;28;20037;-48
2023/06/27 09:27:50;;;;;;;3.40;2.15;;;30.90;99.90;;;;;;5043434;28;20372;-48
2023/06/27 09:30:16;;;;;;;4.50;2.63;;;30.60;99.90;;;;;;5040901;28;20491;-48
2023/06/27 09:32:55;;;;;;;3.50;2.42;;;30.80;99.90;;;;;;5041299;28;20356;-47
2023/06/27 09:35:21;;;;;;;3.83;2.50;;;31.10;99.90;;;;;;5040925;28;20033;-48
2023/06/27 09:37:48;;;;;;;4.18;2.55;;;31.20;99.90;;;;;;5041683;28;21556;-48
2023/06/27 09:40:19;;;;;;;5.93;2.42;;;31.10;99.90;;;;;;5044634;28;20536;-48
2023/06/27 09:42:55;;;;;;;4.23;2.70;;;30.70;99.90;;;;;;5036402;28;20041;-48
2023/06/27 09:45:23;;;;;;;3.92;2.58;;;30.60;99.90;;;;;;5045396;28;20301;-48
2023/06/27 09:47:52;;;;;;;2.80;2.15;;;30.40;99.90;;;;;;4991320;28;20398;-47
2023/06/27 09:50:25;;;;;;;3.55;2.15;;;30.60;99.90;;;;;;4984292;28;20034;-48
2023/06/27 09:52:58;;;;;;;4.40;2.45;;;31.10;99.90;;;;;;4985830;28;20046;-48
2023/06/27 09:55:25;;;;;;;7.85;2.90;;;31.60;99.90;;;;;;4989809;28;20034;-48
2023/06/27 09:57:52;;;;;;;2.60;1.95;;;31.60;99.90;;;;;;4989463;28;20050;-48
2023/06/27 10:00:20;;;;;;;4.25;2.60;;;31.30;99.90;;;;;;4988595;28;20053;-48
2023/06/27 10:02:49;;;;;;;4.10;2.55;;;31.20;99.90;;;;;;4973437;28;20090;-48
2023/06/27 10:05:20;;;;;;;4.82;2.50;;;31.00;99.90;;;;;;4989163;28;20046;-48
2023/06/27 10:07:48;;;;;;;2.97;2.50;;;31.30;99.90;;;;;;4989810;28;20398;-47
2023/06/27 10:10:14;;;;;;;4.95;2.45;;;;;;;;;;4989948;28;20041;-48
2023/06/27 10:12:40;;;;;;;4.55;2.22;;;;;;;;;;4987610;28;20050;-48
2023/06/27 10:15:10;;;;;;;5.25;2.35;;;;;;;;;;4988506;28;20494;-48
2023/06/27 10:17:37;;;;;;;2.85;2.20;;;;;;;;;;4990483;28;20038;-48
2023/06/27 10:20:08;;;;;;;3.08;2.30;;;;;;;;;;5049506;28;20029;-47
2023/06/27 10:22:35;;;;;;;3.72;2.00;;;;;;;;;;5048929;28;20102;-48
2023/06/27 10:25:04;;;;;;;4.75;2.38;;;33.00;99.90;;;;;;5051929;28;20033;-48
2023/06/27 10:27:32;;;;;;;2.53;1.83;;;;;;;;;;5049693;28;20090;-47
2023/06/27 10:30:02;;;;;;;5.63;2.63;;;33.10;99.90;;;;;;5034822;28;20033;-48
2023/06/27 10:32:37;;;;;;;2.97;2.25;;;;;;;;;;5052108;28;20469;-48
2023/06/27 10:35:09;;;;;;;4.10;2.67;;;;;;;;;;5053234;28;20032;-51
2023/06/27 10:37:35;;;;;;;3.13;2.30;;;33.00;99.80;;;;;;4968327;28;20057;-47
2023/06/27 10:40:01;;;;;;;3.97;2.50;;;33.20;99.50;;;;;;5053305;28;20037;-49
2023/06/27 10:42:31;;;;;;;3.42;2.35;;;33.50;99.80;;;;;;5055197;28;20045;-49
2023/06/27 10:45:10;;;;;;;2.35;1.80;;;33.50;98.50;;;;;;5054484;28;20037;-49
2023/06/27 10:47:42;;;;;;;3.95;2.22;;;33.00;98.00;;;;;;5037615;28;20025;-49
2023/06/27 10:50:12;;;;;;;2.20;1.65;;;32.70;97.80;;;;;;5035561;28;20112;-49
2023/06/27 10:52:40;;;;;;;4.57;2.55;;;33.00;98.60;;;;;;5035535;28;20108;-49
2023/06/27 10:55:18;;;;;;;4.20;2.10;;;33.20;98.60;;;;;;5035428;28;20029;-49
2023/06/27 10:57:57;;;;;;;2.92;2.00;;;33.50;98.60;;;;;;5035221;28;20056;-49
2023/06/27 11:00:34;;;;;;;3.10;1.90;;;33.80;98.20;;;;;;5035687;28;20113;-49
2023/06/27 11:03:03;;;;;;;3.00;2.03;;;33.90;97.00;;;;;;5035434;28;20060;-49
2023/06/27 11:05:43;;;;;;;4.03;2.58;;;34.00;97.70;;;;;;5035309;28;20037;-49
2023/06/27 11:08:12;;;;;;;8.13;2.70;;;33.30;97.00;;;;;;5035341;28;20606;-49
2023/06/27 11:10:52;;;;;;;6.18;3.13;;;33.30;97.30;;;;;;5035436;28;20036;-48
2023/06/27 11:13:22;;;;;;;3.17;2.30;;;33.80;97.80;;;;;;5017742;28;20034;-49
2023/06/27 11:15:49;;;;;;;3.58;2.50;;;33.80;97.50;;;;;;5016785;28;20038;-49
2023/06/27 11:18:15;;;;;;;6.15;2.15;;;;;;;;;;5035019;28;20032;-49
2023/06/27 11:20:42;;;;;;;3.58;2.10;;;34.50;97.50;;;;;;5034879;28;20084;-49
2023/06/27 11:23:09;;;;;;;2.85;2.28;;;34.60;97.00;;;;;;5035008;28;20380;-49
2023/06/27 11:25:45;;;;;;;2.53;1.88;;;34.50;96.50;;;;;;5034991;28;20033;-49
2023/06/27 11:28:18;;;;;;;3.00;2.00;;;34.20;96.30;;;;;;5034676;28;20083;-49
2023/06/27 11:30:45;;;;;;;4.05;2.30;;;33.90;95.80;;;;;;5033762;28;20051;-49
2023/06/27 11:33:14;;;;;;;3.13;2.38;;;34.30;96.30;;;;;;5034991;28;20025;-49
2023/06/27 11:35:42;;;;;;;3.33;2.38;;;34.30;96.20;;;;;;5034730;28;20037;-49
2023/06/27 11:38:10;;;;;;;5.03;2.42;;;34.10;96.00;;;;;;5034966;28;20037;-49
2023/06/27 11:40:36;;;;;;;3.50;2.45;;;33.50;95.00;;;;;;5034567;28;20035;-49
2023/06/27 11:43:07;;;;;;;3.72;2.63;;;33.70;95.80;;;;;;5034580;28;20037;-49
2023/06/27 11:45:36;;;;;;;2.40;1.83;;;34.00;95.90;;;;;;5016546;28;20040;-49
2023/06/27 11:48:02;;;;;;;4.03;2.40;;;34.40;95.90;;;;;;5034425;28;20034;-49
2023/06/27 11:50:29;;;;;;;4.88;2.70;;;34.50;95.00;;;;;;5016379;28;20041;-49
2023/06/27 11:52:58;;;;;;;3.45;2.63;;;33.80;95.10;;;;;;5034292;28;20409;-50
2023/06/27 11:55:24;;;;;;;4.03;2.22;;;33.20;95.80;;;;;;5034354;28;20542;-49
2023/06/27 11:57:55;;;;;;;2.97;2.20;;;33.20;95.90;;;;;;5031861;28;20539;-50
2023/06/27 12:00:22;;;;;;;3.20;2.40;;;33.70;95.00;;;;;;5044643;28;20131;-49
2023/06/27 12:02:50;;;;;;;4.85;2.75;;;34.00;95.30;;;;;;5054048;28;20037;-50
2023/06/27 12:05:17;;;;;;;3.90;2.67;;;34.10;95.50;;;;;;5035801;28;20033;-49
2023/06/27 12:08:16;;;;;;;2.90;2.05;;;34.20;95.20;;;;;;5054500;28;20478;-49
2023/06/27 12:10:54;;;;;;;4.10;2.63;;;34.50;95.70;;;;;;5053804;28;20080;-49
2023/06/27 12:13:19;;;;;;;2.88;2.58;;;34.30;94.90;;;;;;5054286;28;20040;-49
2023/06/27 12:15:47;;;;;;;3.20;2.38;;;34.30;94.70;;;;;;5054428;28;20029;-49
2023/06/27 12:18:27;;;;;;;6.63;2.90;;;34.10;94.80;;;;;;5053791;28;20421;-49
2023/06/27 12:20:53;;;;;;;4.10;2.90;;;33.90;95.60;;;;;;5053533;28;20397;-49
2023/06/27 12:23:19;;;;;;;4.72;2.55;;;33.50;95.80;;;;;;5053955;28;20039;-49
2023/06/27 12:25:46;;;;;;;6.95;2.67;;;33.10;96.00;;;;;;5053645;28;20037;-49
2023/06/27 12:28:12;;;;;;;6.20;2.85;;;32.80;96.50;;;;;;5053851;28;20032;-49
2023/06/27 12:30:38;;;;;;;3.30;2.25;;;32.40;95.80;;;;;;5053978;28;20025;-49
2023/06/27 12:33:06;;;;;;;3.50;2.47;;;32.80;97.00;;;;;;5052341;28;20035;-50
2023/06/27 12:35:32;;;;;;;4.72;2.47;;;33.50;96.90;;;;;;5051914;28;20060;-49
2023/06/27 12:37:58;;;;;;;3.70;2.80;;;34.30;96.70;;;;;;5035062;28;20525;-49
2023/06/27 12:40:25;;;;;;;3.60;2.80;;;34.60;97.10;;;;;;5053638;28;20116;-49
2023/06/27 12:42:51;;;;;;;4.38;3.10;;;;;;;;;;5053509;28;20504;-49
2023/06/27 12:45:20;;;;;;;5.55;3.13;;;35.70;96.40;;;;;;5053512;28;20033;-49
2023/06/27 12:47:47;;;;;;;4.25;2.70;;;35.60;95.80;;;;;;5053064;28;20035;-49
2023/06/27 12:50:17;;;;;;;5.72;2.92;;;35.50;95.40;;;;;;5053408;28;20035;-49
2023/06/27 12:52:48;;;;;;;4.78;2.67;;;35.10;98.50;;;;;;5034900;28;20110;-49
2023/06/27 12:55:15;;;;;;;4.47;2.90;;;;;;;;;;5053288;28;20036;-49
2023/06/27 12:57:41;;;;;;;6.70;3.28;;;35.40;95.80;;;;;;5052983;28;20052;-49
2023/06/27 13:00:09;;;;;;;4.05;2.90;;;35.30;95.70;;;;;;5052998;28;20052;-49
2023/06/27 13:02:41;;;;;;;5.57;3.05;;;34.90;95.20;;;;;;5034897;28;20049;-49
2023/06/27 13:05:07;;;;;;;5.30;3.20;;;34.50;95.80;;;;;;5053057;28;20100;-49
2023/06/27 13:07:34;;;;;;;3.42;2.72;;;34.50;95.70;;;;;;5002040;28;20044;-49
2023/06/27 13:10:01;;;;;;;4.78;3.20;;;34.60;95.70;;;;;;5053106;28;20476;-49
2023/06/27 13:12:27;;;;;;;5.07;3.42;;;34.30;96.70;;;;;;5052902;28;20427;-49